Latest Coastal Weather Observations for Friendly Beaches

IDT60701

Issued at 1:51 pm EST Tuesday 1 September 2015 (issued every 10 minutes, with the page automatically refreshed every 10 minutes)

About coastal observations | Map of coastal stations | Coastal observations for TAS | Marine services | Other Formats
Station Details ID: 092114 Name: FRIENDLY BEACHES Lat: -42.00 Lon: 148.28 Height: 55.0 m
Data from the previous 72 hours. | See also: Recent months at Friendly Beaches
Date/Time
EST
Temp

°C
Wind Pressure Rain
since 9am
mm
Weather Cloud Vis
km
Sea
Height
m
Swell
Dir
 
Speed
knots
Gust
knots
hPa Trend Height
m
Period
s
Dir
01/01:30pm 12.5 S 9 15 1013.9 - 0.0 - - - - - - -
01/01:00pm 12.5 SSW 8 14 1014.3 - 0.0 - - - - - - -
01/12:30pm 11.8 SSW 9 15 1014.6 - 0.0 - - - - - - -
01/12:00pm 11.5 SSW 8 13 1015.0 - 0.0 - - - - - - -
01/11:30am 12.5 SSW 7 13 1015.3 - 0.0 - - - - - - -
01/11:00am 11.4 SW 8 13 1015.3 - 0.0 - - - - - - -
01/10:30am 11.3 SW 7 14 1015.3 - 0.0 - - - - - - -
01/10:00am 11.0 SW 7 10 1015.4 - 0.0 - - - - - - -
01/09:30am 10.7 SW 7 12 1015.6 - 0.0 - - - - - - -
01/09:00am 9.7 SW 7 11 1015.7 - 2.0 - - - - - - -
01/08:30am 8.9 WSW 5 8 1015.8 - 2.0 - - - - - - -
01/08:00am 7.8 WSW 5 7 1015.9 - 2.0 - - - - - - -
01/07:30am 7.4 WSW 6 10 1015.9 - 2.0 - - - - - - -
01/07:00am 7.1 W 6 8 1015.7 - 2.0 - - - - - - -
01/06:30am 6.9 W 5 7 1015.5 - 2.0 - - - - - - -
01/06:00am 6.9 WSW 6 8 1015.3 - 2.0 - - - - - - -
01/05:30am 6.9 WSW 6 9 1015.3 - 2.0 - - - - - - -
01/05:00am 7.0 WSW 6 8 1015.3 - 2.0 - - - - - - -
01/04:30am 6.9 WSW 6 8 1015.4 - 2.0 - - - - - - -
01/04:00am 7.1 WSW 5 8 1015.4 - 2.0 - - - - - - -
01/03:30am 7.0 WSW 6 9 1015.4 - 2.0 - - - - - - -
01/03:00am 7.0 WSW 6 9 1015.7 - 2.0 - - - - - - -
01/02:30am 7.0 W 6 8 1015.9 - 2.0 - - - - - - -
01/02:00am 7.1 WSW 6 9 1016.2 - 2.0 - - - - - - -
01/01:30am 7.2 W 6 9 1016.4 - 1.8 - - - - - - -
01/01:00am 7.4 W 5 9 1016.6 - 1.8 - - - - - - -
01/12:30am 7.5 WSW 7 13 1016.6 - 1.8 - - - - - - -
01/12:00am 7.6 WSW 6 9 1016.7 - 1.8 - - - - - - -
 
Date/Time
EST
Temp

°C
Wind Pressure Rain
since 9am
mm
Weather Cloud Vis
km
Sea
Height
m
Swell
Dir
 
Speed
knots
Gust
knots
hPa Trend Height
m
Period
s
Dir
31/11:30pm 7.7 W 6 9 1016.9 - 1.8 - - - - - - -
31/11:00pm 8.1 WSW 6 9 1017.1 - 1.8 - - - - - - -
31/10:30pm 7.9 W 5 9 1017.3 - 1.8 - - - - - - -
31/10:00pm 7.8 WSW 6 9 1017.5 - 1.8 - - - - - - -
31/09:30pm 7.8 W 6 9 1017.7 - 1.8 - - - - - - -
31/09:00pm 7.8 W 6 9 1017.8 - 1.8 Recent precip. - - - - - -
31/08:30pm 8.0 WSW 6 10 1017.9 - 1.8 - - - - - - -
31/08:00pm 8.2 SW 7 12 1017.9 - 1.6 - - - - - - -
31/07:30pm 8.3 WSW 8 11 1017.9 - 1.6 - - - - - - -
31/07:00pm 8.3 SW 7 14 1017.8 - 1.6 - - - - - - -
31/06:30pm 8.3 SW 7 13 1017.8 - 1.4 - - - - - - -
31/06:00pm 8.4 SW 8 14 1017.8 - 1.2 Recent precip. - - - - - -
31/05:30pm 8.7 SW 6 10 1017.8 - 1.0 - - - - - - -
31/05:00pm 8.8 SW 8 13 1017.8 - 0.6 - - - - - - -
31/04:30pm 9.0 SW 8 14 1017.8 - 0.6 - - - - - - -
31/04:00pm 9.4 SSW 8 13 1017.8 - 0.2 - - - - - - -
31/03:30pm 10.0 SSW 10 15 1017.8 - 0.2 - - - - - - -
31/03:00pm 10.5 SSW 10 16 1017.8 - 0.0 - - - - - - -
31/02:30pm 10.6 SW 11 18 1017.9 - 0.0 - - - - - - -
31/02:00pm 10.6 SSW 13 21 1017.9 - 0.0 - - - - - - -
31/01:30pm 11.2 SSW 8 17 1018.3 - 0.0 - - - - - - -
31/01:00pm 11.3 SSW 9 19 1018.7 - 0.0 - - - - - - -
31/12:30pm 11.0 SSW 10 15 1019.0 - 0.0 - - - - - - -
31/12:00pm 10.3 SSW 11 21 1019.4 - 0.0 - - - - - - -
31/11:30am 10.4 SW 8 16 1019.7 - 0.0 - - - - - - -
31/11:00am 10.4 SSW 7 16 1019.9 - 0.0 - - - - - - -
31/10:30am 9.9 SW 7 13 1020.0 - 0.0 - - - - - - -
31/10:00am 9.4 WSW 8 13 1020.2 - 0.0 - - - - - - -
31/09:30am 9.1 WSW 8 12 1020.4 - 0.0 - - - - - - -
31/09:00am 8.5 SSW 8 13 1020.6 - 3.4 - - - - - - -
31/08:30am 7.5 SW 6 9 1020.8 - 3.4 - - - - - - -
31/08:00am 7.1 SW 8 12 1020.8 - 3.4 - - - - - - -
31/07:30am 6.8 SW 9 14 1020.7 - 3.4 - - - - - - -
31/07:00am 6.5 SW 9 15 1020.5 - 3.4 - - - - - - -
31/06:30am 6.6 SW 8 13 1020.4 - 3.4 - - - - - - -
31/06:00am 6.6 SW 8 11 1020.5 - 3.2 Recent precip. - - - - - -
31/05:30am 6.7 SW 8 14 1020.5 - 3.0 - - - - - - -
31/05:00am 6.7 SW 8 13 1020.7 - 3.0 - - - - - - -
31/04:30am 6.7 SW 7 11 1020.7 - 2.8 - - - - - - -
31/04:00am 6.8 SW 9 15 1020.7 - 2.8 - - - - - - -
31/03:30am 6.5 WSW 7 11 1020.8 - 2.8 - - - - - - -
31/03:00am 6.6 SW 9 16 1021.0 - 2.6 Recent precip. - - - - - -
31/02:30am 6.7 SW 8 12 1021.4 - 2.4 - - - - - - -
31/02:00am 6.7 SW 9 13 1021.6 - 2.2 - - - - - - -
31/01:30am 6.9 SW 7 11 1021.8 - 2.0 - - - - - - -
31/01:00am 6.8 WSW 7 12 1022.0 - 1.6 - - - - - - -
31/12:30am 6.9 SW 8 15 1022.3 - 1.4 - - - - - - -
31/12:00am 7.1 SW 10 18 1022.2 - 1.4 Rain - - - - - -
 
Date/Time
EST
Temp

°C
Wind Pressure Rain
since 9am
mm
Weather Cloud Vis
km
Sea
Height
m
Swell
Dir
 
Speed
knots
Gust
knots
hPa Trend Height
m
Period
s
Dir
30/11:30pm 7.1 SW 7 12 1022.3 - 1.2 - - - - - - -
30/11:00pm 7.4 SW 8 14 1022.5 - 1.2 - - - - - - -
30/10:30pm 7.4 SW 7 13 1022.6 - 1.0 - - - - - - -
30/10:00pm 7.3 SW 8 15 1022.8 - 1.0 - - - - - - -
30/09:30pm 7.4 SW 7 14 1023.0 - 1.0 - - - - - - -
30/09:00pm 7.2 WSW 8 13 1023.0 - 1.0 - - - - - - -
30/08:30pm 7.3 WSW 10 16 1023.0 - 1.0 - - - - - - -
30/08:00pm 7.6 WSW 9 13 1022.9 - 1.0 - - - - - - -
30/07:30pm 7.8 SW 8 14 1022.8 - 1.0 - - - - - - -
30/07:00pm 7.9 SW 9 14 1022.7 - 1.0 - - - - - - -
30/06:30pm 8.0 SW 9 13 1022.7 - 1.0 - - - - - - -
30/06:00pm 8.1 SW 8 13 1022.5 - 1.0 - - - - - - -
30/05:30pm 8.0 SW 7 13 1022.5 - 1.0 - - - - - - -
30/05:00pm 8.1 SW 9 17 1022.4 - 1.0 - - - - - - -
30/04:30pm 8.3 SSW 8 17 1022.4 - 1.0 - - - - - - -
30/04:00pm 7.9 SSW 11 21 1022.4 - 1.0 - - - - - - -
30/03:30pm 8.8 SSW 9 17 1022.3 - 0.8 - - - - - - -
30/03:00pm 9.6 SSW 10 16 1022.3 - 0.8 - - - - - - -
30/02:30pm 9.8 SSW 13 21 1022.2 - 0.8 - - - - - - -
30/02:00pm 9.0 SSW 11 23 1022.3 - 0.8 - - - - - - -
30/01:30pm 9.3 SSW 12 21 1022.4 - 0.8 - - - - - - -
30/01:00pm 9.5 SSW 13 23 1022.6 - 0.8 - - - - - - -
30/12:30pm 9.2 SSW 14 22 1022.9 - 0.8 - - - - - - -
30/12:00pm 9.5 SSW 8 13 1023.3 - 0.8 - - - - - - -
30/11:30am 8.2 SSW 12 18 1023.6 - 0.8 - - - - - - -
30/11:00am 8.3 SSW 12 21 1023.7 - 0.8 - - - - - - -
30/10:30am 7.7 SW 11 17 1023.8 - 0.6 - - - - - - -
30/10:00am 7.3 SW 12 21 1024.1 - 0.6 - - - - - - -
30/09:30am 7.1 SSW 11 16 1024.2 - 0.6 - - - - - - -
30/09:00am 7.2 SW 10 16 1024.2 - 9.2 Recent precip. - - - - - -
30/08:30am 6.8 SSW 13 20 1024.1 - 9.0 - - - - - - -
30/08:00am 6.6 SW 11 20 1023.8 - 8.4 - - - - - - -
30/07:30am 6.5 SW 12 20 1023.5 - 8.4 - - - - - - -
30/07:00am 6.0 SW 11 18 1023.3 - 8.2 - - - - - - -
30/06:30am 6.1 SW 12 22 1022.8 - 8.0 - - - - - - -
30/06:00am 6.0 SW 9 19 1022.6 - 7.8 - - - - - - -
30/05:30am 6.6 WSW 10 16 1022.4 - 7.8 - - - - - - -
30/05:00am 6.5 SW 10 22 1022.4 - 7.8 - - - - - - -
30/04:30am 7.2 SW 9 20 1022.5 - 7.6 - - - - - - -
30/04:00am 7.3 SW 11 19 1022.2 - 7.6 - - - - - - -
30/03:30am 7.3 SW 10 21 1022.1 - 7.6 - - - - - - -
30/03:00am 7.1 SW 12 25 1022.3 - 7.6 - - - - - - -
30/02:30am 7.2 SW 10 18 1022.4 - 7.6 - - - - - - -
30/02:00am 7.3 SW 12 23 1022.6 - 7.6 - - - - - - -
30/01:30am 7.4 SSW 12 23 1022.9 - 7.6 - - - - - - -
30/01:00am 7.4 SSW 14 25 1022.9 - 7.6 - - - - - - -
30/12:30am 7.5 SSW 13 24 1023.0 - 7.6 - - - - - - -
30/12:00am 7.5 SW 13 23 1022.8 - 7.6 - - - - - - -
 
Date/Time
EST
Temp

°C
Wind Pressure Rain
since 9am
mm
Weather Cloud Vis
km
Sea
Height
m
Swell
Dir
 
Speed
knots
Gust
knots
hPa Trend Height
m
Period
s
Dir
29/11:30pm 7.5 SW 12 22 1022.9 - 7.6 - - - - - - -
29/11:00pm 7.6 SW 11 20 1023.0 - 7.6 - - - - - - -
29/10:30pm 7.7 SW 12 21 1023.2 - 7.6 - - - - - - -
29/10:00pm 7.6 SSW 11 21 1023.0 - 7.6 - - - - - - -
29/09:30pm 7.5 SSW 13 23 1022.8 - 7.6 - - - - - - -
29/09:00pm 7.4 SSW 12 23 1022.5 - 7.6 - - - - - - -
29/08:30pm 7.2 SSW 13 24 1022.3 - 7.6 - - - - - - -
29/08:00pm 7.0 SSW 16 27 1022.2 - 7.6 - - - - - - -
29/07:30pm 7.3 SSW 16 27 1021.8 - 7.4 - - - - - - -
29/07:12pm 7.1 SSW 15 28 1021.6 - 7.2 - - - - - - -
29/07:00pm 7.2 SW 15 24 1021.5 - 7.2 - - - - - - -
29/06:31pm 7.3 SSW 16 26 1021.0 - 7.2 - - - - - - -
29/06:30pm 7.3 SSW 17 26 1021.0 - 7.2 - - - - - - -
29/06:00pm 7.0 SSW 15 27 1020.6 - 7.2 Rain - - - - - -
29/05:30pm 7.1 SSW 18 35 1020.4 - 7.0 - - - - - - -
29/05:00pm 7.3 SSW 17 28 1020.0 - 6.8 - - - - - - -
29/04:30pm 7.3 SW 17 33 1019.4 - 6.8 - - - - - - -
29/04:00pm 7.5 SSW 17 31 1019.1 - 6.4 - - - - - - -
29/03:30pm 7.6 SSW 19 30 1018.9 - 6.2 - - - - - - -
29/03:00pm 7.8 SSW 18 33 1018.8 - 6.0 Rain - - - - - -
29/02:30pm 8.1 SSW 16 34 1018.7 - 5.8 - - - - - - -
29/02:07pm 8.6 SSW 17 36 1018.5 - 5.6 - - - - - - -
29/02:00pm 8.8 SSW 16 26 1018.4 - 5.6 - - - - - - -

Other Formats:

Comma delimited format used in spreadsheet applications
http://www.bom.gov.au/fwo/IDT60701/IDT60701.94987.axf

JavaScript Object Notation format (JSON) in row-major order
http://www.bom.gov.au/fwo/IDT60701/IDT60701.94987.json